createdAt,value
2023-03-06T11:27:59.133Z,61.78
2023-03-06T11:31:03.626Z,61.78
2023-03-06T11:34:07.657Z,63.36
2023-03-06T11:37:13.443Z,63.20
2023-03-06T11:40:19.346Z,62.15
2023-03-06T11:43:25.477Z,62.49
2023-03-06T11:46:29.112Z,61.94
2023-03-06T11:49:32.567Z,61.73
2023-03-06T11:52:39.656Z,61.24
2023-03-06T11:55:45.895Z,62.09
2023-03-06T11:59:01.187Z,61.37
2023-03-06T12:02:05.970Z,60.91
2023-03-06T12:05:18.285Z,58.43
2023-03-06T12:08:31.239Z,58.09
2023-03-06T12:11:35.498Z,56.69
2023-03-06T12:14:42.585Z,56.88
2023-03-06T12:17:59.873Z,55.69
2023-03-06T12:21:04.675Z,55.70
2023-03-06T12:24:39.222Z,55.82
2023-03-06T12:27:44.141Z,54.94
2023-03-06T12:31:02.346Z,55.48
2023-03-06T12:34:12.235Z,55.65
2023-03-06T12:37:20.247Z,54.83
2023-03-06T12:40:45.338Z,55.76
2023-03-06T12:44:00.531Z,55.61
2023-03-06T12:47:06.864Z,55.49
2023-03-06T12:50:17.080Z,54.98
2023-03-06T12:53:23.239Z,56.20
2023-03-06T12:56:25.880Z,55.95
2023-03-06T12:59:49.568Z,57.90
2023-03-06T13:03:06.776Z,56.90
2023-03-06T13:06:19.260Z,57.26
2023-03-06T13:09:25.140Z,57.28
2023-03-06T13:12:35.767Z,57.17
2023-03-06T13:15:42.705Z,57.68
2023-03-06T13:18:52.416Z,58.33
2023-03-06T13:22:01.292Z,57.45
2023-03-06T13:25:34.776Z,56.13
2023-03-06T13:28:44.890Z,56.07
2023-03-06T13:32:15.253Z,57.71
2023-03-06T13:35:53.426Z,57.76
2023-03-06T13:39:04.853Z,56.09
2023-03-06T13:42:07.502Z,56.02
2023-03-06T13:45:14.187Z,55.36
2023-03-06T13:48:45.462Z,56.18
2023-03-06T13:52:02.524Z,55.91
2023-03-06T13:55:11.060Z,55.17
2023-03-06T13:58:28.320Z,55.52
2023-03-06T14:01:39.269Z,60.16
2023-03-06T14:04:53.362Z,62.05
2023-03-06T14:08:05.285Z,63.34
2023-03-06T14:11:16.941Z,63.10
2023-03-06T14:14:20.484Z,63.47
2023-03-06T14:17:28.267Z,63.81
2023-03-06T14:20:33.697Z,64.53
2023-03-06T14:23:42.359Z,64.91
2023-03-06T14:26:45.916Z,65.44
2023-03-06T14:29:49.782Z,65.59
2023-03-06T14:32:54.050Z,64.90
2023-03-06T14:35:57.141Z,64.68
2023-03-06T14:39:04.236Z,65.64
2023-03-06T14:42:07.945Z,65.08
2023-03-06T14:45:16.238Z,65.26
2023-03-06T14:48:19.071Z,65.68
2023-03-06T14:51:23.065Z,64.61
2023-03-06T14:54:28.639Z,64.05
2023-03-06T14:57:30.991Z,63.86
2023-03-06T15:00:35.763Z,64.39
2023-03-06T15:03:43.044Z,63.74
2023-03-06T15:06:45.971Z,64.79
2023-03-06T15:09:50.708Z,64.23
2023-03-06T15:12:53.504Z,65.54
2023-03-06T15:15:57.271Z,66.96
2023-03-06T15:19:00.728Z,67.34
2023-03-06T15:22:03.110Z,67.92
2023-03-06T15:25:19.651Z,68.19
2023-03-06T15:28:32.860Z,68.82
2023-03-06T15:31:36.188Z,69.02
2023-03-06T15:34:38.683Z,70.45
2023-03-06T15:37:41.387Z,72.09
2023-03-06T15:40:53.956Z,74.12
2023-03-06T15:43:57.385Z,72.64
2023-03-06T15:47:08.468Z,73.33
2023-03-06T15:50:16.215Z,74.03
2023-03-06T15:53:20.183Z,75.02
2023-03-06T15:56:28.034Z,77.78
2023-03-06T15:59:33.015Z,79.29
2023-03-06T16:02:35.684Z,79.21
2023-03-06T16:05:38.626Z,80.28
2023-03-06T16:08:41.066Z,81.96
2023-03-06T16:11:45.175Z,81.32
2023-03-06T16:14:47.987Z,82.89
2023-03-06T16:17:50.632Z,82.97
2023-03-06T16:20:53.085Z,82.84
2023-03-06T16:23:55.785Z,83.99
2023-03-06T16:27:00.543Z,84.62
2023-03-06T16:30:03.523Z,86.44
2023-03-06T16:33:06.110Z,87.73
2023-03-06T16:36:12.564Z,90.00
2023-03-06T16:39:15.131Z,90.72
2023-03-06T16:42:19.236Z,90.66
2023-03-06T16:45:21.838Z,91.50
2023-03-06T16:48:24.463Z,94.20
2023-03-06T16:51:26.907Z,93.45
2023-03-06T16:54:29.566Z,92.32
2023-03-06T16:57:35.698Z,94.21
2023-03-06T17:00:38.318Z,93.93
